sensor_id;sensor_type;location;lat;lon;timestamp;P1;durP1;ratioP1;P2;durP2;ratioP2
30127;SDS011;16942;53.196;6.592;2022-08-19T00:01:16;10.67;;;7.47;;
30127;SDS011;16942;53.196;6.592;2022-08-19T00:03:41;9.13;;;7.57;;
30127;SDS011;16942;53.196;6.592;2022-08-19T00:06:07;14.03;;;8.43;;
30127;SDS011;16942;53.196;6.592;2022-08-19T00:08:33;11.10;;;8.53;;
30127;SDS011;16942;53.196;6.592;2022-08-19T00:10:59;13.73;;;9.17;;
30127;SDS011;16942;53.196;6.592;2022-08-19T00:13:24;15.70;;;8.27;;
30127;SDS011;16942;53.196;6.592;2022-08-19T00:15:51;11.63;;;7.70;;
30127;SDS011;16942;53.196;6.592;2022-08-19T00:18:17;10.77;;;8.13;;
30127;SDS011;16942;53.196;6.592;2022-08-19T00:20:42;15.20;;;7.60;;
30127;SDS011;16942;53.196;6.592;2022-08-19T00:23:09;11.17;;;8.53;;
30127;SDS011;16942;53.196;6.592;2022-08-19T00:25:34;9.13;;;7.43;;
30127;SDS011;16942;53.196;6.592;2022-08-19T00:28:01;12.40;;;8.10;;
30127;SDS011;16942;53.196;6.592;2022-08-19T00:30:27;9.83;;;7.80;;
30127;SDS011;16942;53.196;6.592;2022-08-19T00:32:53;11.83;;;7.70;;
30127;SDS011;16942;53.196;6.592;2022-08-19T00:35:22;13.87;;;8.20;;
30127;SDS011;16942;53.196;6.592;2022-08-19T00:37:48;12.27;;;7.97;;
30127;SDS011;16942;53.196;6.592;2022-08-19T00:40:16;11.83;;;7.93;;
30127;SDS011;16942;53.196;6.592;2022-08-19T00:42:44;10.33;;;7.93;;
30127;SDS011;16942;53.196;6.592;2022-08-19T00:45:13;13.57;;;7.60;;
30127;SDS011;16942;53.196;6.592;2022-08-19T00:47:42;9.93;;;7.67;;
30127;SDS011;16942;53.196;6.592;2022-08-19T00:50:09;9.27;;;7.03;;
30127;SDS011;16942;53.196;6.592;2022-08-19T00:52:39;10.00;;;7.87;;
30127;SDS011;16942;53.196;6.592;2022-08-19T00:55:10;9.10;;;6.80;;
30127;SDS011;16942;53.196;6.592;2022-08-19T00:57:40;11.17;;;7.57;;
30127;SDS011;16942;53.196;6.592;2022-08-19T01:00:11;11.23;;;7.10;;
30127;SDS011;16942;53.196;6.592;2022-08-19T01:02:40;11.03;;;7.17;;
30127;SDS011;16942;53.196;6.592;2022-08-19T01:05:14;9.57;;;7.20;;
30127;SDS011;16942;53.196;6.592;2022-08-19T01:07:43;9.03;;;7.47;;
30127;SDS011;16942;53.196;6.592;2022-08-19T01:10:11;10.47;;;6.50;;
30127;SDS011;16942;53.196;6.592;2022-08-19T01:12:39;9.07;;;7.37;;
30127;SDS011;16942;53.196;6.592;2022-08-19T01:15:05;9.43;;;7.60;;
30127;SDS011;16942;53.196;6.592;2022-08-19T01:17:33;10.30;;;7.33;;
30127;SDS011;16942;53.196;6.592;2022-08-19T01:20:02;13.10;;;7.20;;
30127;SDS011;16942;53.196;6.592;2022-08-19T01:22:37;9.67;;;6.27;;
30127;SDS011;16942;53.196;6.592;2022-08-19T01:25:09;12.23;;;7.07;;
30127;SDS011;16942;53.196;6.592;2022-08-19T01:27:41;8.17;;;6.43;;
30127;SDS011;16942;53.196;6.592;2022-08-19T01:30:10;9.17;;;6.77;;
30127;SDS011;16942;53.196;6.592;2022-08-19T01:32:38;13.80;;;7.47;;
30127;SDS011;16942;53.196;6.592;2022-08-19T01:35:04;12.00;;;8.33;;
30127;SDS011;16942;53.196;6.592;2022-08-19T01:37:41;11.77;;;8.03;;
30127;SDS011;16942;53.196;6.592;2022-08-19T01:40:15;10.10;;;7.60;;
30127;SDS011;16942;53.196;6.592;2022-08-19T01:42:41;10.40;;;8.10;;
30127;SDS011;16942;53.196;6.592;2022-08-19T01:45:07;13.07;;;8.37;;
30127;SDS011;16942;53.196;6.592;2022-08-19T01:47:34;19.30;;;8.17;;
30127;SDS011;16942;53.196;6.592;2022-08-19T01:50:01;11.30;;;8.40;;
30127;SDS011;16942;53.196;6.592;2022-08-19T01:52:27;13.53;;;9.70;;
30127;SDS011;16942;53.196;6.592;2022-08-19T01:54:53;11.83;;;8.73;;
30127;SDS011;16942;53.196;6.592;2022-08-19T01:57:18;11.23;;;8.50;;
30127;SDS011;16942;53.196;6.592;2022-08-19T01:59:44;14.43;;;9.73;;
30127;SDS011;16942;53.196;6.592;2022-08-19T02:02:11;14.87;;;9.33;;
30127;SDS011;16942;53.196;6.592;2022-08-19T02:04:37;12.57;;;9.17;;
30127;SDS011;16942;53.196;6.592;2022-08-19T02:07:03;11.97;;;9.20;;
30127;SDS011;16942;53.196;6.592;2022-08-19T02:09:30;13.47;;;9.30;;
30127;SDS011;16942;53.196;6.592;2022-08-19T02:11:57;11.63;;;8.57;;
30127;SDS011;16942;53.196;6.592;2022-08-19T02:14:23;13.33;;;9.50;;
30127;SDS011;16942;53.196;6.592;2022-08-19T02:16:49;14.57;;;9.53;;
30127;SDS011;16942;53.196;6.592;2022-08-19T02:19:14;17.73;;;9.10;;
30127;SDS011;16942;53.196;6.592;2022-08-19T02:21:40;14.20;;;9.17;;
30127;SDS011;16942;53.196;6.592;2022-08-19T02:24:06;10.30;;;7.90;;
30127;SDS011;16942;53.196;6.592;2022-08-19T02:26:32;13.03;;;9.50;;
30127;SDS011;16942;53.196;6.592;2022-08-19T02:28:58;11.63;;;9.37;;
30127;SDS011;16942;53.196;6.592;2022-08-19T02:31:25;12.87;;;8.43;;
30127;SDS011;16942;53.196;6.592;2022-08-19T02:33:53;9.97;;;8.23;;
30127;SDS011;16942;53.196;6.592;2022-08-19T02:36:20;13.97;;;8.77;;
30127;SDS011;16942;53.196;6.592;2022-08-19T02:38:46;14.67;;;8.57;;
30127;SDS011;16942;53.196;6.592;2022-08-19T02:41:16;13.37;;;8.70;;
30127;SDS011;16942;53.196;6.592;2022-08-19T02:43:44;13.60;;;8.23;;
30127;SDS011;16942;53.196;6.592;2022-08-19T02:46:24;13.73;;;8.60;;
30127;SDS011;16942;53.196;6.592;2022-08-19T02:48:53;16.20;;;8.43;;
30127;SDS011;16942;53.196;6.592;2022-08-19T02:51:22;12.70;;;8.03;;
30127;SDS011;16942;53.196;6.592;2022-08-19T02:53:50;12.60;;;8.47;;
30127;SDS011;16942;53.196;6.592;2022-08-19T02:56:16;11.30;;;8.00;;
30127;SDS011;16942;53.196;6.592;2022-08-19T02:58:42;14.33;;;8.37;;
30127;SDS011;16942;53.196;6.592;2022-08-19T03:01:08;12.33;;;7.70;;
30127;SDS011;16942;53.196;6.592;2022-08-19T03:03:35;9.87;;;6.97;;
30127;SDS011;16942;53.196;6.592;2022-08-19T03:06:05;9.53;;;7.37;;
30127;SDS011;16942;53.196;6.592;2022-08-19T03:08:40;12.07;;;7.80;;
30127;SDS011;16942;53.196;6.592;2022-08-19T03:11:12;9.57;;;7.20;;
30127;SDS011;16942;53.196;6.592;2022-08-19T03:13:42;13.83;;;8.00;;
30127;SDS011;16942;53.196;6.592;2022-08-19T03:16:09;13.87;;;8.50;;
30127;SDS011;16942;53.196;6.592;2022-08-19T03:18:35;14.03;;;8.00;;
30127;SDS011;16942;53.196;6.592;2022-08-19T03:21:01;12.80;;;8.50;;
30127;SDS011;16942;53.196;6.592;2022-08-19T03:23:27;13.10;;;8.33;;
30127;SDS011;16942;53.196;6.592;2022-08-19T03:25:53;12.90;;;7.90;;
30127;SDS011;16942;53.196;6.592;2022-08-19T03:28:19;13.67;;;8.43;;
30127;SDS011;16942;53.196;6.592;2022-08-19T03:31:05;10.13;;;8.13;;
30127;SDS011;16942;53.196;6.592;2022-08-19T03:33:38;14.53;;;8.77;;
30127;SDS011;16942;53.196;6.592;2022-08-19T03:38:36;12.80;;;8.57;;
30127;SDS011;16942;53.196;6.592;2022-08-19T03:41:04;15.87;;;8.70;;
30127;SDS011;16942;53.196;6.592;2022-08-19T03:43:32;12.17;;;8.33;;
30127;SDS011;16942;53.196;6.592;2022-08-19T03:45:59;15.43;;;9.77;;
30127;SDS011;16942;53.196;6.592;2022-08-19T03:48:27;18.33;;;9.77;;
30127;SDS011;16942;53.196;6.592;2022-08-19T03:50:53;14.33;;;8.97;;
30127;SDS011;16942;53.196;6.592;2022-08-19T03:53:18;14.10;;;9.10;;
30127;SDS011;16942;53.196;6.592;2022-08-19T03:55:44;12.87;;;8.77;;
30127;SDS011;16942;53.196;6.592;2022-08-19T03:58:09;14.27;;;8.87;;
30127;SDS011;16942;53.196;6.592;2022-08-19T04:00:36;17.00;;;9.70;;
30127;SDS011;16942;53.196;6.592;2022-08-19T04:03:01;13.23;;;8.40;;
30127;SDS011;16942;53.196;6.592;2022-08-19T04:05:28;15.10;;;9.17;;
30127;SDS011;16942;53.196;6.592;2022-08-19T04:07:53;13.60;;;9.03;;
30127;SDS011;16942;53.196;6.592;2022-08-19T04:10:22;13.33;;;8.60;;
30127;SDS011;16942;53.196;6.592;2022-08-19T04:12:48;12.27;;;8.53;;
30127;SDS011;16942;53.196;6.592;2022-08-19T04:15:14;14.60;;;9.27;;
30127;SDS011;16942;53.196;6.592;2022-08-19T04:17:40;14.47;;;9.17;;
30127;SDS011;16942;53.196;6.592;2022-08-19T04:20:06;13.27;;;8.60;;
30127;SDS011;16942;53.196;6.592;2022-08-19T04:22:31;12.47;;;8.63;;
30127;SDS011;16942;53.196;6.592;2022-08-19T04:24:57;12.50;;;8.70;;
30127;SDS011;16942;53.196;6.592;2022-08-19T04:27:23;13.57;;;8.73;;
30127;SDS011;16942;53.196;6.592;2022-08-19T04:29:48;14.87;;;9.40;;
30127;SDS011;16942;53.196;6.592;2022-08-19T04:32:14;14.00;;;9.53;;
30127;SDS011;16942;53.196;6.592;2022-08-19T04:34:40;12.80;;;9.50;;
30127;SDS011;16942;53.196;6.592;2022-08-19T04:37:07;17.77;;;9.67;;
30127;SDS011;16942;53.196;6.592;2022-08-19T04:39:36;13.77;;;7.97;;
30127;SDS011;16942;53.196;6.592;2022-08-19T04:42:21;12.53;;;9.00;;
30127;SDS011;16942;53.196;6.592;2022-08-19T04:45:05;12.00;;;8.23;;
30127;SDS011;16942;53.196;6.592;2022-08-19T04:47:34;14.60;;;8.73;;
30127;SDS011;16942;53.196;6.592;2022-08-19T04:50:03;16.00;;;9.00;;
30127;SDS011;16942;53.196;6.592;2022-08-19T04:52:29;13.03;;;8.77;;
30127;SDS011;16942;53.196;6.592;2022-08-19T04:54:56;13.00;;;9.30;;
30127;SDS011;16942;53.196;6.592;2022-08-19T04:57:23;14.97;;;8.13;;
30127;SDS011;16942;53.196;6.592;2022-08-19T04:59:49;12.53;;;8.00;;
30127;SDS011;16942;53.196;6.592;2022-08-19T05:02:18;13.00;;;8.90;;
30127;SDS011;16942;53.196;6.592;2022-08-19T05:04:43;16.37;;;10.00;;
30127;SDS011;16942;53.196;6.592;2022-08-19T05:07:09;18.83;;;10.70;;
30127;SDS011;16942;53.196;6.592;2022-08-19T05:09:35;19.13;;;10.53;;
30127;SDS011;16942;53.196;6.592;2022-08-19T05:12:00;17.93;;;10.20;;
30127;SDS011;16942;53.196;6.592;2022-08-19T05:14:26;20.97;;;11.23;;
30127;SDS011;16942;53.196;6.592;2022-08-19T05:16:53;15.73;;;10.37;;
30127;SDS011;16942;53.196;6.592;2022-08-19T05:19:19;22.07;;;11.20;;
30127;SDS011;16942;53.196;6.592;2022-08-19T05:22:04;18.53;;;10.67;;
30127;SDS011;16942;53.196;6.592;2022-08-19T05:24:47;19.70;;;10.40;;
30127;SDS011;16942;53.196;6.592;2022-08-19T05:27:13;17.77;;;11.07;;
30127;SDS011;16942;53.196;6.592;2022-08-19T05:29:39;17.17;;;10.90;;
30127;SDS011;16942;53.196;6.592;2022-08-19T05:32:05;16.90;;;10.53;;
30127;SDS011;16942;53.196;6.592;2022-08-19T05:34:35;15.90;;;10.27;;
30127;SDS011;16942;53.196;6.592;2022-08-19T05:37:03;17.70;;;12.07;;
30127;SDS011;16942;53.196;6.592;2022-08-19T05:39:30;22.00;;;12.17;;
30127;SDS011;16942;53.196;6.592;2022-08-19T05:42:01;19.40;;;11.77;;
30127;SDS011;16942;53.196;6.592;2022-08-19T05:44:33;20.33;;;10.83;;
30127;SDS011;16942;53.196;6.592;2022-08-19T05:47:00;18.07;;;11.17;;
30127;SDS011;16942;53.196;6.592;2022-08-19T05:49:27;19.23;;;11.37;;
30127;SDS011;16942;53.196;6.592;2022-08-19T05:51:54;18.67;;;11.50;;
30127;SDS011;16942;53.196;6.592;2022-08-19T05:54:20;26.13;;;12.40;;
30127;SDS011;16942;53.196;6.592;2022-08-19T05:56:49;20.97;;;12.27;;
30127;SDS011;16942;53.196;6.592;2022-08-19T05:59:15;22.33;;;12.00;;
30127;SDS011;16942;53.196;6.592;2022-08-19T06:01:43;26.27;;;12.00;;
30127;SDS011;16942;53.196;6.592;2022-08-19T06:04:11;22.07;;;12.23;;
30127;SDS011;16942;53.196;6.592;2022-08-19T06:06:40;21.17;;;11.40;;
30127;SDS011;16942;53.196;6.592;2022-08-19T06:09:06;19.13;;;11.57;;
30127;SDS011;16942;53.196;6.592;2022-08-19T06:11:37;19.43;;;12.40;;
30127;SDS011;16942;53.196;6.592;2022-08-19T06:14:11;19.77;;;12.10;;
30127;SDS011;16942;53.196;6.592;2022-08-19T06:16:39;21.17;;;12.90;;
30127;SDS011;16942;53.196;6.592;2022-08-19T06:19:07;17.77;;;11.57;;
30127;SDS011;16942;53.196;6.592;2022-08-19T06:21:36;18.43;;;11.07;;
30127;SDS011;16942;53.196;6.592;2022-08-19T06:24:05;22.20;;;11.60;;
30127;SDS011;16942;53.196;6.592;2022-08-19T06:26:34;20.00;;;11.67;;
30127;SDS011;16942;53.196;6.592;2022-08-19T06:29:02;18.93;;;11.77;;
30127;SDS011;16942;53.196;6.592;2022-08-19T06:31:30;20.10;;;11.00;;
30127;SDS011;16942;53.196;6.592;2022-08-19T06:33:59;15.00;;;10.70;;
30127;SDS011;16942;53.196;6.592;2022-08-19T06:36:27;16.27;;;11.13;;
30127;SDS011;16942;53.196;6.592;2022-08-19T06:38:59;14.67;;;10.07;;
30127;SDS011;16942;53.196;6.592;2022-08-19T06:41:28;18.73;;;11.10;;
30127;SDS011;16942;53.196;6.592;2022-08-19T06:43:55;20.47;;;11.63;;
30127;SDS011;16942;53.196;6.592;2022-08-19T06:46:22;17.50;;;11.77;;
30127;SDS011;16942;53.196;6.592;2022-08-19T06:48:48;19.33;;;11.73;;
30127;SDS011;16942;53.196;6.592;2022-08-19T06:51:17;24.10;;;11.43;;
30127;SDS011;16942;53.196;6.592;2022-08-19T06:53:46;19.07;;;11.70;;
30127;SDS011;16942;53.196;6.592;2022-08-19T06:56:17;18.07;;;11.87;;
30127;SDS011;16942;53.196;6.592;2022-08-19T06:58:45;19.33;;;11.83;;
30127;SDS011;16942;53.196;6.592;2022-08-19T07:01:12;18.53;;;11.23;;
30127;SDS011;16942;53.196;6.592;2022-08-19T07:03:38;16.93;;;11.13;;
30127;SDS011;16942;53.196;6.592;2022-08-19T07:06:08;13.23;;;9.97;;
30127;SDS011;16942;53.196;6.592;2022-08-19T07:08:37;16.00;;;10.13;;
30127;SDS011;16942;53.196;6.592;2022-08-19T07:11:06;12.93;;;9.73;;
30127;SDS011;16942;53.196;6.592;2022-08-19T07:13:33;19.17;;;10.40;;
30127;SDS011;16942;53.196;6.592;2022-08-19T07:16:05;18.50;;;9.97;;
30127;SDS011;16942;53.196;6.592;2022-08-19T07:18:32;15.63;;;9.77;;
30127;SDS011;16942;53.196;6.592;2022-08-19T07:21:09;14.37;;;10.20;;
30127;SDS011;16942;53.196;6.592;2022-08-19T07:23:41;15.67;;;10.97;;
30127;SDS011;16942;53.196;6.592;2022-08-19T07:26:08;19.67;;;10.10;;
30127;SDS011;16942;53.196;6.592;2022-08-19T07:28:39;17.83;;;10.77;;
30127;SDS011;16942;53.196;6.592;2022-08-19T07:31:06;14.47;;;9.67;;
30127;SDS011;16942;53.196;6.592;2022-08-19T07:33:32;16.77;;;10.73;;
30127;SDS011;16942;53.196;6.592;2022-08-19T07:35:59;13.47;;;10.30;;
30127;SDS011;16942;53.196;6.592;2022-08-19T07:38:24;12.90;;;9.40;;
30127;SDS011;16942;53.196;6.592;2022-08-19T07:40:50;16.07;;;10.23;;
30127;SDS011;16942;53.196;6.592;2022-08-19T07:43:16;17.60;;;10.57;;
30127;SDS011;16942;53.196;6.592;2022-08-19T07:45:45;13.13;;;9.53;;
30127;SDS011;16942;53.196;6.592;2022-08-19T07:48:12;15.87;;;9.67;;
30127;SDS011;16942;53.196;6.592;2022-08-19T07:50:37;12.80;;;8.83;;
30127;SDS011;16942;53.196;6.592;2022-08-19T07:53:03;13.77;;;9.77;;
30127;SDS011;16942;53.196;6.592;2022-08-19T07:55:29;13.60;;;9.33;;
30127;SDS011;16942;53.196;6.592;2022-08-19T07:57:55;15.27;;;9.10;;
30127;SDS011;16942;53.196;6.592;2022-08-19T08:00:21;11.13;;;7.63;;
30127;SDS011;16942;53.196;6.592;2022-08-19T08:02:46;11.67;;;8.47;;
30127;SDS011;16942;53.196;6.592;2022-08-19T08:05:12;10.87;;;8.77;;
30127;SDS011;16942;53.196;6.592;2022-08-19T08:07:56;11.90;;;9.33;;
30127;SDS011;16942;53.196;6.592;2022-08-19T08:10:40;12.90;;;8.40;;
30127;SDS011;16942;53.196;6.592;2022-08-19T08:13:06;11.93;;;9.77;;
30127;SDS011;16942;53.196;6.592;2022-08-19T08:15:32;13.17;;;9.23;;
30127;SDS011;16942;53.196;6.592;2022-08-19T08:17:57;16.37;;;10.07;;
30127;SDS011;16942;53.196;6.592;2022-08-19T08:20:23;13.90;;;10.43;;
30127;SDS011;16942;53.196;6.592;2022-08-19T08:22:49;10.77;;;8.97;;
30127;SDS011;16942;53.196;6.592;2022-08-19T08:25:34;13.03;;;9.30;;
30127;SDS011;16942;53.196;6.592;2022-08-19T08:28:00;10.93;;;7.97;;
30127;SDS011;16942;53.196;6.592;2022-08-19T08:30:28;8.50;;;7.30;;
30127;SDS011;16942;53.196;6.592;2022-08-19T08:32:55;7.67;;;6.60;;
30127;SDS011;16942;53.196;6.592;2022-08-19T08:35:21;10.03;;;7.40;;
30127;SDS011;16942;53.196;6.592;2022-08-19T08:37:48;12.25;;;7.78;;
30127;SDS011;16942;53.196;6.592;2022-08-19T08:40:20;8.40;;;7.32;;
30127;SDS011;16942;53.196;6.592;2022-08-19T08:43:03;10.57;;;8.25;;
30127;SDS011;16942;53.196;6.592;2022-08-19T08:48:36;12.73;;;8.48;;
30127;SDS011;16942;53.196;6.592;2022-08-19T08:51:33;10.88;;;8.23;;
30127;SDS011;16942;53.196;6.592;2022-08-19T08:54:05;11.30;;;8.85;;
30127;SDS011;16942;53.196;6.592;2022-08-19T08:56:32;17.17;;;9.93;;
30127;SDS011;16942;53.196;6.592;2022-08-19T09:01:24;12.05;;;10.50;;
30127;SDS011;16942;53.196;6.592;2022-08-19T09:03:49;11.07;;;9.75;;
30127;SDS011;16942;53.196;6.592;2022-08-19T09:09:42;14.70;;;9.95;;
30127;SDS011;16942;53.196;6.592;2022-08-19T09:12:10;10.18;;;8.85;;
30127;SDS011;16942;53.196;6.592;2022-08-19T09:17:13;15.93;;;10.43;;
30127;SDS011;16942;53.196;6.592;2022-08-19T09:19:53;16.05;;;10.05;;
30127;SDS011;16942;53.196;6.592;2022-08-19T09:22:21;13.38;;;9.43;;
30127;SDS011;16942;53.196;6.592;2022-08-19T09:24:48;13.70;;;9.68;;
30127;SDS011;16942;53.196;6.592;2022-08-19T09:27:15;12.15;;;10.85;;
30127;SDS011;16942;53.196;6.592;2022-08-19T09:29:41;12.57;;;9.93;;
30127;SDS011;16942;53.196;6.592;2022-08-19T09:32:07;14.00;;;10.20;;
30127;SDS011;16942;53.196;6.592;2022-08-19T09:34:32;15.70;;;11.30;;
30127;SDS011;16942;53.196;6.592;2022-08-19T09:36:58;13.85;;;10.82;;
30127;SDS011;16942;53.196;6.592;2022-08-19T09:39:25;14.25;;;11.35;;
30127;SDS011;16942;53.196;6.592;2022-08-19T09:41:50;13.93;;;11.20;;
30127;SDS011;16942;53.196;6.592;2022-08-19T09:44:16;14.40;;;10.52;;
30127;SDS011;16942;53.196;6.592;2022-08-19T09:46:42;15.55;;;10.45;;
30127;SDS011;16942;53.196;6.592;2022-08-19T09:49:08;12.15;;;10.55;;
30127;SDS011;16942;53.196;6.592;2022-08-19T09:51:33;13.40;;;10.73;;
30127;SDS011;16942;53.196;6.592;2022-08-19T09:54:00;10.70;;;9.50;;
30127;SDS011;16942;53.196;6.592;2022-08-19T09:56:27;12.30;;;10.10;;
30127;SDS011;16942;53.196;6.592;2022-08-19T09:58:55;12.32;;;9.23;;
30127;SDS011;16942;53.196;6.592;2022-08-19T10:01:24;13.88;;;10.63;;
30127;SDS011;16942;53.196;6.592;2022-08-19T10:03:53;14.27;;;10.85;;
30127;SDS011;16942;53.196;6.592;2022-08-19T10:06:22;11.20;;;9.63;;
30127;SDS011;16942;53.196;6.592;2022-08-19T10:08:50;11.80;;;8.63;;
30127;SDS011;16942;53.196;6.592;2022-08-19T10:11:16;9.98;;;7.25;;
30127;SDS011;16942;53.196;6.592;2022-08-19T10:13:44;11.82;;;10.07;;
30127;SDS011;16942;53.196;6.592;2022-08-19T10:16:11;11.95;;;10.05;;
30127;SDS011;16942;53.196;6.592;2022-08-19T10:18:39;10.77;;;9.60;;
30127;SDS011;16942;53.196;6.592;2022-08-19T10:21:10;11.35;;;9.25;;
30127;SDS011;16942;53.196;6.592;2022-08-19T10:23:39;10.88;;;8.80;;
30127;SDS011;16942;53.196;6.592;2022-08-19T10:26:10;11.07;;;9.35;;
30127;SDS011;16942;53.196;6.592;2022-08-19T10:28:36;10.48;;;8.40;;
30127;SDS011;16942;53.196;6.592;2022-08-19T10:31:03;13.10;;;10.35;;
30127;SDS011;16942;53.196;6.592;2022-08-19T10:33:31;13.55;;;9.73;;
30127;SDS011;16942;53.196;6.592;2022-08-19T10:36:04;15.57;;;11.70;;
30127;SDS011;16942;53.196;6.592;2022-08-19T10:38:32;14.23;;;9.20;;
30127;SDS011;16942;53.196;6.592;2022-08-19T10:41:05;10.40;;;9.27;;
30127;SDS011;16942;53.196;6.592;2022-08-19T10:43:32;12.35;;;9.98;;
30127;SDS011;16942;53.196;6.592;2022-08-19T10:46:01;9.80;;;8.75;;
30127;SDS011;16942;53.196;6.592;2022-08-19T10:48:28;15.05;;;11.43;;
30127;SDS011;16942;53.196;6.592;2022-08-19T10:50:54;13.25;;;10.48;;
30127;SDS011;16942;53.196;6.592;2022-08-19T10:53:41;11.93;;;10.32;;
30127;SDS011;16942;53.196;6.592;2022-08-19T10:56:06;9.00;;;8.05;;
30127;SDS011;16942;53.196;6.592;2022-08-19T10:58:50;13.65;;;10.43;;
30127;SDS011;16942;53.196;6.592;2022-08-19T11:01:16;11.38;;;9.70;;
30127;SDS011;16942;53.196;6.592;2022-08-19T11:03:42;13.20;;;10.18;;
30127;SDS011;16942;53.196;6.592;2022-08-19T11:06:08;10.85;;;9.73;;
30127;SDS011;16942;53.196;6.592;2022-08-19T11:08:34;10.82;;;9.73;;
30127;SDS011;16942;53.196;6.592;2022-08-19T11:11:03;10.60;;;8.50;;
30127;SDS011;16942;53.196;6.592;2022-08-19T11:13:31;14.38;;;11.18;;
30127;SDS011;16942;53.196;6.592;2022-08-19T11:16:01;12.00;;;10.68;;
30127;SDS011;16942;53.196;6.592;2022-08-19T11:18:31;15.18;;;10.90;;
30127;SDS011;16942;53.196;6.592;2022-08-19T11:21:12;14.70;;;11.98;;
30127;SDS011;16942;53.196;6.592;2022-08-19T11:23:43;14.00;;;11.48;;
30127;SDS011;16942;53.196;6.592;2022-08-19T11:26:10;12.38;;;9.05;;
30127;SDS011;16942;53.196;6.592;2022-08-19T11:28:36;11.40;;;10.18;;
30127;SDS011;16942;53.196;6.592;2022-08-19T11:31:02;10.27;;;9.27;;
30127;SDS011;16942;53.196;6.592;2022-08-19T11:33:29;14.32;;;11.50;;
30127;SDS011;16942;53.196;6.592;2022-08-19T11:35:58;10.43;;;9.43;;
30127;SDS011;16942;53.196;6.592;2022-08-19T11:38:26;11.45;;;10.25;;
30127;SDS011;16942;53.196;6.592;2022-08-19T11:40:56;10.88;;;9.60;;
30127;SDS011;16942;53.196;6.592;2022-08-19T11:43:23;14.07;;;11.65;;
30127;SDS011;16942;53.196;6.592;2022-08-19T11:45:51;9.68;;;8.75;;
30127;SDS011;16942;53.196;6.592;2022-08-19T11:48:17;11.70;;;10.52;;
30127;SDS011;16942;53.196;6.592;2022-08-19T11:50:46;12.70;;;11.20;;
30127;SDS011;16942;53.196;6.592;2022-08-19T11:53:19;11.43;;;10.10;;
30127;SDS011;16942;53.196;6.592;2022-08-19T11:55:45;15.13;;;12.60;;
30127;SDS011;16942;53.196;6.592;2022-08-19T11:58:12;15.18;;;11.77;;
30127;SDS011;16942;53.196;6.592;2022-08-19T12:00:39;13.43;;;11.75;;
30127;SDS011;16942;53.196;6.592;2022-08-19T12:03:05;12.18;;;11.00;;
30127;SDS011;16942;53.196;6.592;2022-08-19T12:05:31;12.98;;;10.77;;
30127;SDS011;16942;53.196;6.592;2022-08-19T12:07:57;12.25;;;10.95;;
30127;SDS011;16942;53.196;6.592;2022-08-19T12:10:22;13.88;;;10.98;;
30127;SDS011;16942;53.196;6.592;2022-08-19T12:12:48;14.30;;;12.48;;
30127;SDS011;16942;53.196;6.592;2022-08-19T12:15:14;10.80;;;9.68;;
30127;SDS011;16942;53.196;6.592;2022-08-19T12:17:41;13.02;;;10.82;;
30127;SDS011;16942;53.196;6.592;2022-08-19T12:20:07;12.50;;;10.70;;
30127;SDS011;16942;53.196;6.592;2022-08-19T12:22:35;13.43;;;10.77;;
30127;SDS011;16942;53.196;6.592;2022-08-19T12:25:02;11.63;;;9.48;;
30127;SDS011;16942;53.196;6.592;2022-08-19T12:27:29;11.80;;;10.60;;
30127;SDS011;16942;53.196;6.592;2022-08-19T12:29:56;12.15;;;10.88;;
30127;SDS011;16942;53.196;6.592;2022-08-19T12:32:22;13.60;;;11.18;;
30127;SDS011;16942;53.196;6.592;2022-08-19T12:34:49;9.60;;;8.38;;
30127;SDS011;16942;53.196;6.592;2022-08-19T12:37:15;12.93;;;11.35;;
30127;SDS011;16942;53.196;6.592;2022-08-19T12:39:42;9.15;;;8.20;;
30127;SDS011;16942;53.196;6.592;2022-08-19T12:42:09;11.52;;;9.30;;
30127;SDS011;16942;53.196;6.592;2022-08-19T12:44:36;12.93;;;10.80;;
30127;SDS011;16942;53.196;6.592;2022-08-19T12:47:02;12.20;;;10.27;;
30127;SDS011;16942;53.196;6.592;2022-08-19T12:49:29;13.32;;;10.25;;
30127;SDS011;16942;53.196;6.592;2022-08-19T12:51:58;11.60;;;10.40;;
30127;SDS011;16942;53.196;6.592;2022-08-19T12:54:28;11.50;;;9.95;;
30127;SDS011;16942;53.196;6.592;2022-08-19T12:56:55;11.25;;;9.00;;
30127;SDS011;16942;53.196;6.592;2022-08-19T12:59:24;9.13;;;8.15;;
30127;SDS011;16942;53.196;6.592;2022-08-19T13:01:51;13.32;;;9.32;;
30127;SDS011;16942;53.196;6.592;2022-08-19T13:04:17;12.68;;;8.98;;
30127;SDS011;16942;53.196;6.592;2022-08-19T13:06:43;10.80;;;9.65;;
30127;SDS011;16942;53.196;6.592;2022-08-19T13:09:09;10.02;;;9.02;;
30127;SDS011;16942;53.196;6.592;2022-08-19T13:11:35;13.73;;;9.55;;
30127;SDS011;16942;53.196;6.592;2022-08-19T13:14:02;11.20;;;9.93;;
30127;SDS011;16942;53.196;6.592;2022-08-19T13:16:28;11.52;;;10.00;;
30127;SDS011;16942;53.196;6.592;2022-08-19T13:18:55;12.30;;;9.90;;
30127;SDS011;16942;53.196;6.592;2022-08-19T13:21:23;11.20;;;9.02;;
30127;SDS011;16942;53.196;6.592;2022-08-19T13:23:52;10.15;;;9.15;;
30127;SDS011;16942;53.196;6.592;2022-08-19T13:26:19;10.88;;;9.07;;
30127;SDS011;16942;53.196;6.592;2022-08-19T13:28:45;11.60;;;9.25;;
30127;SDS011;16942;53.196;6.592;2022-08-19T13:31:31;12.02;;;9.68;;
30127;SDS011;16942;53.196;6.592;2022-08-19T13:34:18;16.33;;;11.63;;
30127;SDS011;16942;53.196;6.592;2022-08-19T13:36:51;19.25;;;12.50;;
30127;SDS011;16942;53.196;6.592;2022-08-19T13:39:17;20.58;;;12.63;;
30127;SDS011;16942;53.196;6.592;2022-08-19T13:41:44;17.60;;;13.30;;
30127;SDS011;16942;53.196;6.592;2022-08-19T13:44:15;18.27;;;13.20;;
30127;SDS011;16942;53.196;6.592;2022-08-19T13:46:43;21.55;;;11.25;;
30127;SDS011;16942;53.196;6.592;2022-08-19T13:49:10;12.40;;;10.32;;
30127;SDS011;16942;53.196;6.592;2022-08-19T13:51:38;10.98;;;9.10;;
30127;SDS011;16942;53.196;6.592;2022-08-19T13:54:07;9.95;;;7.70;;
30127;SDS011;16942;53.196;6.592;2022-08-19T13:56:35;11.27;;;8.02;;
30127;SDS011;16942;53.196;6.592;2022-08-19T13:59:08;11.00;;;8.98;;
30127;SDS011;16942;53.196;6.592;2022-08-19T14:01:35;9.82;;;8.23;;
30127;SDS011;16942;53.196;6.592;2022-08-19T14:04:01;10.73;;;9.05;;
30127;SDS011;16942;53.196;6.592;2022-08-19T14:06:27;10.43;;;8.05;;
30127;SDS011;16942;53.196;6.592;2022-08-19T14:08:53;10.10;;;8.40;;
30127;SDS011;16942;53.196;6.592;2022-08-19T14:11:19;10.88;;;8.07;;
30127;SDS011;16942;53.196;6.592;2022-08-19T14:13:44;9.07;;;7.72;;
30127;SDS011;16942;53.196;6.592;2022-08-19T14:16:11;9.85;;;8.10;;
30127;SDS011;16942;53.196;6.592;2022-08-19T14:18:38;8.77;;;7.47;;
30127;SDS011;16942;53.196;6.592;2022-08-19T14:21:05;9.32;;;8.00;;
30127;SDS011;16942;53.196;6.592;2022-08-19T14:23:32;12.43;;;9.23;;
30127;SDS011;16942;53.196;6.592;2022-08-19T14:26:09;12.93;;;7.80;;
30127;SDS011;16942;53.196;6.592;2022-08-19T14:28:38;14.85;;;9.82;;
30127;SDS011;16942;53.196;6.592;2022-08-19T14:31:06;16.50;;;10.50;;
30127;SDS011;16942;53.196;6.592;2022-08-19T14:33:36;14.73;;;9.90;;
30127;SDS011;16942;53.196;6.592;2022-08-19T14:36:01;12.13;;;9.10;;
30127;SDS011;16942;53.196;6.592;2022-08-19T14:38:28;13.77;;;9.68;;
30127;SDS011;16942;53.196;6.592;2022-08-19T14:40:56;14.90;;;10.52;;
30127;SDS011;16942;53.196;6.592;2022-08-19T14:43:32;15.15;;;9.32;;
30127;SDS011;16942;53.196;6.592;2022-08-19T14:45:59;16.45;;;10.63;;
30127;SDS011;16942;53.196;6.592;2022-08-19T14:48:24;17.63;;;11.65;;
30127;SDS011;16942;53.196;6.592;2022-08-19T14:50:51;15.95;;;10.13;;